sensor_id;sensor_type;location;lat;lon;timestamp;noise_LAeq;noise_LA_min;noise_LA_max;noise_LA01;noise_LA95
81666;Laerm;71083;51.796;10.952;2023-08-01T00:00:56;54.83;32.13;72.43;;
81666;Laerm;71083;51.796;10.952;2023-08-01T00:03:21;56.95;31.14;71.40;;
81666;Laerm;71083;51.796;10.952;2023-08-01T00:05:47;37.28;31.80;47.53;;
81666;Laerm;71083;51.796;10.952;2023-08-01T00:08:12;57.02;31.41;74.39;;
81666;Laerm;71083;51.796;10.952;2023-08-01T00:10:38;39.07;30.23;56.69;;
81666;Laerm;71083;51.796;10.952;2023-08-01T00:13:03;30.74;28.94;35.19;;
81666;Laerm;71083;51.796;10.952;2023-08-01T00:15:29;30.62;29.13;33.30;;
81666;Laerm;71083;51.796;10.952;2023-08-01T00:17:54;40.60;30.02;53.53;;
81666;Laerm;71083;51.796;10.952;2023-08-01T00:20:19;35.16;30.53;43.85;;
81666;Laerm;71083;51.796;10.952;2023-08-01T00:22:45;33.74;30.15;44.65;;
81666;Laerm;71083;51.796;10.952;2023-08-01T00:25:10;49.47;29.06;66.13;;
81666;Laerm;71083;51.796;10.952;2023-08-01T00:27:35;37.46;30.56;44.78;;
81666;Laerm;71083;51.796;10.952;2023-08-01T00:30:01;37.14;30.02;53.62;;
81666;Laerm;71083;51.796;10.952;2023-08-01T00:32:26;39.47;29.95;48.63;;
81666;Laerm;71083;51.796;10.952;2023-08-01T00:34:51;36.51;29.96;51.76;;
81666;Laerm;71083;51.796;10.952;2023-08-01T00:37:17;31.08;29.33;34.26;;
81666;Laerm;71083;51.796;10.952;2023-08-01T00:39:42;54.62;31.16;70.38;;
81666;Laerm;71083;51.796;10.952;2023-08-01T00:42:07;39.27;30.23;51.55;;
81666;Laerm;71083;51.796;10.952;2023-08-01T00:44:33;31.70;29.86;34.43;;
81666;Laerm;71083;51.796;10.952;2023-08-01T00:46:58;64.68;30.14;81.21;;
81666;Laerm;71083;51.796;10.952;2023-08-01T00:49:23;57.02;31.07;73.02;;
81666;Laerm;71083;51.796;10.952;2023-08-01T00:51:49;33.97;31.53;40.78;;
81666;Laerm;71083;51.796;10.952;2023-08-01T00:54:15;54.70;31.37;70.62;;
81666;Laerm;71083;51.796;10.952;2023-08-01T00:56:41;39.19;32.03;49.89;;
81666;Laerm;71083;51.796;10.952;2023-08-01T00:59:06;51.15;31.08;67.06;;
81666;Laerm;71083;51.796;10.952;2023-08-01T01:01:32;56.58;31.97;71.97;;
81666;Laerm;71083;51.796;10.952;2023-08-01T01:03:57;32.68;29.71;38.01;;
81666;Laerm;71083;51.796;10.952;2023-08-01T01:06:32;51.65;29.35;67.55;;
81666;Laerm;71083;51.796;10.952;2023-08-01T01:08:58;32.45;30.11;43.27;;
81666;Laerm;71083;51.796;10.952;2023-08-01T01:11:23;32.26;29.59;36.56;;
81666;Laerm;71083;51.796;10.952;2023-08-01T01:13:49;30.29;28.89;33.47;;
81666;Laerm;71083;51.796;10.952;2023-08-01T01:16:18;31.46;29.48;38.30;;
81666;Laerm;71083;51.796;10.952;2023-08-01T01:18:43;32.72;28.97;39.45;;
81666;Laerm;71083;51.796;10.952;2023-08-01T01:21:08;36.95;28.73;49.36;;
81666;Laerm;71083;51.796;10.952;2023-08-01T01:23:34;30.14;28.74;41.05;;
81666;Laerm;71083;51.796;10.952;2023-08-01T01:25:59;52.37;30.02;70.49;;
81666;Laerm;71083;51.796;10.952;2023-08-01T01:28:25;55.10;29.87;71.06;;
81666;Laerm;71083;51.796;10.952;2023-08-01T01:30:51;55.01;28.92;72.65;;
81666;Laerm;71083;51.796;10.952;2023-08-01T01:33:18;29.96;29.12;31.88;;
81666;Laerm;71083;51.796;10.952;2023-08-01T01:35:43;30.09;29.03;32.38;;
81666;Laerm;71083;51.796;10.952;2023-08-01T01:38:09;32.73;30.06;38.24;;
81666;Laerm;71083;51.796;10.952;2023-08-01T01:40:34;52.75;29.59;68.51;;
81666;Laerm;71083;51.796;10.952;2023-08-01T01:43:00;32.76;29.63;39.18;;
81666;Laerm;71083;51.796;10.952;2023-08-01T01:45:25;51.76;29.18;67.71;;
81666;Laerm;71083;51.796;10.952;2023-08-01T01:47:51;58.05;32.35;75.10;;
81666;Laerm;71083;51.796;10.952;2023-08-01T01:50:16;35.80;30.32;43.34;;
81666;Laerm;71083;51.796;10.952;2023-08-01T01:52:43;54.22;30.30;71.14;;
81666;Laerm;71083;51.796;10.952;2023-08-01T01:55:08;54.60;29.91;71.18;;
81666;Laerm;71083;51.796;10.952;2023-08-01T01:57:33;53.96;29.08;70.02;;
81666;Laerm;71083;51.796;10.952;2023-08-01T02:00:01;61.24;29.42;78.25;;
81666;Laerm;71083;51.796;10.952;2023-08-01T02:02:26;62.67;29.08;78.64;;
81666;Laerm;71083;51.796;10.952;2023-08-01T02:04:52;53.34;32.06;68.76;;
81666;Laerm;71083;51.796;10.952;2023-08-01T02:07:17;52.19;29.12;68.55;;
81666;Laerm;71083;51.796;10.952;2023-08-01T02:09:42;30.74;29.32;43.91;;
81666;Laerm;71083;51.796;10.952;2023-08-01T02:12:08;52.42;29.29;67.80;;
81666;Laerm;71083;51.796;10.952;2023-08-01T02:14:35;37.17;29.87;46.85;;
81666;Laerm;71083;51.796;10.952;2023-08-01T02:17:00;58.03;29.58;70.46;;
81666;Laerm;71083;51.796;10.952;2023-08-01T02:19:26;56.48;29.84;74.74;;
81666;Laerm;71083;51.796;10.952;2023-08-01T02:21:51;65.52;29.62;78.92;;
81666;Laerm;71083;51.796;10.952;2023-08-01T02:24:17;50.31;30.09;69.83;;
81666;Laerm;71083;51.796;10.952;2023-08-01T02:26:42;65.21;35.78;79.39;;
81666;Laerm;71083;51.796;10.952;2023-08-01T02:29:07;55.15;29.57;71.44;;
81666;Laerm;71083;51.796;10.952;2023-08-01T02:31:32;64.03;36.42;81.49;;
81666;Laerm;71083;51.796;10.952;2023-08-01T02:33:58;65.36;31.34;82.65;;
81666;Laerm;71083;51.796;10.952;2023-08-01T02:36:23;63.67;32.05;74.72;;
81666;Laerm;71083;51.796;10.952;2023-08-01T02:38:48;57.25;30.35;70.94;;
81666;Laerm;71083;51.796;10.952;2023-08-01T02:41:14;61.25;31.85;72.83;;
81666;Laerm;71083;51.796;10.952;2023-08-01T02:43:39;61.86;33.36;71.50;;
81666;Laerm;71083;51.796;10.952;2023-08-01T02:46:04;56.88;32.96;69.30;;
81666;Laerm;71083;51.796;10.952;2023-08-01T02:48:30;63.02;33.70;77.18;;
81666;Laerm;71083;51.796;10.952;2023-08-01T02:50:56;63.45;39.88;74.84;;
81666;Laerm;71083;51.796;10.952;2023-08-01T02:53:21;59.16;34.28;69.91;;
81666;Laerm;71083;51.796;10.952;2023-08-01T02:55:46;63.43;37.21;75.42;;
81666;Laerm;71083;51.796;10.952;2023-08-01T02:58:12;61.31;33.57;72.55;;
81666;Laerm;71083;51.796;10.952;2023-08-01T03:00:37;66.04;39.34;78.80;;
81666;Laerm;71083;51.796;10.952;2023-08-01T03:03:03;62.17;34.50;78.28;;
81666;Laerm;71083;51.796;10.952;2023-08-01T03:05:29;65.44;42.13;78.73;;
81666;Laerm;71083;51.796;10.952;2023-08-01T03:07:54;64.25;32.30;78.46;;
81666;Laerm;71083;51.796;10.952;2023-08-01T03:10:19;59.94;34.36;71.34;;
81666;Laerm;71083;51.796;10.952;2023-08-01T03:12:44;65.31;38.80;80.14;;
81666;Laerm;71083;51.796;10.952;2023-08-01T03:15:10;62.23;39.23;73.62;;
81666;Laerm;71083;51.796;10.952;2023-08-01T03:17:35;65.59;42.59;76.09;;
81666;Laerm;71083;51.796;10.952;2023-08-01T03:20:00;62.70;47.85;73.78;;
81666;Laerm;71083;51.796;10.952;2023-08-01T03:22:26;69.22;59.97;75.17;;
81666;Laerm;71083;51.796;10.952;2023-08-01T03:24:51;64.55;41.33;75.71;;
81666;Laerm;71083;51.796;10.952;2023-08-01T03:27:17;62.77;47.17;74.05;;
81666;Laerm;71083;51.796;10.952;2023-08-01T03:29:42;66.71;47.16;81.00;;
81666;Laerm;71083;51.796;10.952;2023-08-01T03:32:08;62.36;49.11;74.94;;
81666;Laerm;71083;51.796;10.952;2023-08-01T03:34:33;66.00;49.16;74.36;;
81666;Laerm;71083;51.796;10.952;2023-08-01T03:36:58;64.07;50.90;73.60;;
81666;Laerm;71083;51.796;10.952;2023-08-01T03:39:24;68.77;53.23;83.04;;
81666;Laerm;71083;51.796;10.952;2023-08-01T03:41:49;66.81;52.36;76.43;;
81666;Laerm;71083;51.796;10.952;2023-08-01T03:44:14;65.85;52.18;74.98;;
81666;Laerm;71083;51.796;10.952;2023-08-01T03:46:42;73.06;53.94;80.93;;
81666;Laerm;71083;51.796;10.952;2023-08-01T03:49:07;65.91;52.81;75.71;;
81666;Laerm;71083;51.796;10.952;2023-08-01T03:51:33;66.98;47.78;76.82;;
81666;Laerm;71083;51.796;10.952;2023-08-01T03:53:58;66.47;49.88;75.51;;
81666;Laerm;71083;51.796;10.952;2023-08-01T03:56:24;65.61;49.39;74.72;;
81666;Laerm;71083;51.796;10.952;2023-08-01T03:58:49;66.33;45.82;80.28;;
81666;Laerm;71083;51.796;10.952;2023-08-01T04:01:14;64.41;45.24;74.91;;
81666;Laerm;71083;51.796;10.952;2023-08-01T04:03:40;67.95;44.48;82.82;;
81666;Laerm;71083;51.796;10.952;2023-08-01T04:06:05;65.93;43.82;79.61;;
81666;Laerm;71083;51.796;10.952;2023-08-01T04:08:30;66.18;50.80;76.66;;
81666;Laerm;71083;51.796;10.952;2023-08-01T04:10:56;66.96;50.16;77.95;;
81666;Laerm;71083;51.796;10.952;2023-08-01T04:13:21;63.87;45.63;75.85;;
81666;Laerm;71083;51.796;10.952;2023-08-01T04:15:46;66.95;51.41;75.32;;
81666;Laerm;71083;51.796;10.952;2023-08-01T04:18:12;65.49;46.86;77.22;;
81666;Laerm;71083;51.796;10.952;2023-08-01T04:20:38;66.27;47.71;75.48;;
81666;Laerm;71083;51.796;10.952;2023-08-01T04:23:03;68.44;46.78;79.74;;
81666;Laerm;71083;51.796;10.952;2023-08-01T04:25:28;64.84;45.46;73.57;;
81666;Laerm;71083;51.796;10.952;2023-08-01T04:27:54;67.21;44.45;75.58;;
81666;Laerm;71083;51.796;10.952;2023-08-01T04:30:19;69.21;41.31;81.46;;
81666;Laerm;71083;51.796;10.952;2023-08-01T04:32:44;64.51;44.50;75.13;;
81666;Laerm;71083;51.796;10.952;2023-08-01T04:35:10;69.66;49.50;80.00;;
81666;Laerm;71083;51.796;10.952;2023-08-01T04:37:35;64.68;42.31;75.98;;
81666;Laerm;71083;51.796;10.952;2023-08-01T04:40:01;67.80;38.98;81.53;;
81666;Laerm;71083;51.796;10.952;2023-08-01T04:42:26;67.89;51.32;76.43;;
81666;Laerm;71083;51.796;10.952;2023-08-01T04:44:52;66.86;41.66;76.14;;
81666;Laerm;71083;51.796;10.952;2023-08-01T04:47:17;67.67;42.71;75.49;;
81666;Laerm;71083;51.796;10.952;2023-08-01T04:49:42;67.92;41.71;81.51;;
81666;Laerm;71083;51.796;10.952;2023-08-01T04:52:08;68.32;49.32;81.34;;
81666;Laerm;71083;51.796;10.952;2023-08-01T04:54:33;67.23;39.80;77.75;;
81666;Laerm;71083;51.796;10.952;2023-08-01T04:56:58;64.23;40.39;72.77;;
81666;Laerm;71083;51.796;10.952;2023-08-01T04:59:24;65.79;43.73;78.40;;
81666;Laerm;71083;51.796;10.952;2023-08-01T05:01:49;66.84;42.24;80.85;;
81666;Laerm;71083;51.796;10.952;2023-08-01T05:04:14;68.00;45.19;79.00;;
81666;Laerm;71083;51.796;10.952;2023-08-01T05:06:40;66.57;48.85;76.26;;
81666;Laerm;71083;51.796;10.952;2023-08-01T05:09:05;66.63;49.39;78.45;;
81666;Laerm;71083;51.796;10.952;2023-08-01T05:11:31;68.50;48.51;83.40;;
81666;Laerm;71083;51.796;10.952;2023-08-01T05:13:57;69.78;48.30;80.98;;
81666;Laerm;71083;51.796;10.952;2023-08-01T05:16:22;66.19;39.62;78.38;;
81666;Laerm;71083;51.796;10.952;2023-08-01T05:18:47;67.65;51.83;76.06;;
81666;Laerm;71083;51.796;10.952;2023-08-01T05:21:13;63.90;44.81;73.53;;
81666;Laerm;71083;51.796;10.952;2023-08-01T05:23:38;65.98;44.35;76.43;;
81666;Laerm;71083;51.796;10.952;2023-08-01T05:26:03;67.72;49.38;76.16;;
81666;Laerm;71083;51.796;10.952;2023-08-01T05:28:29;67.14;44.45;77.14;;
81666;Laerm;71083;51.796;10.952;2023-08-01T05:30:54;66.54;46.19;78.14;;
81666;Laerm;71083;51.796;10.952;2023-08-01T05:33:20;65.81;45.60;79.24;;
81666;Laerm;71083;51.796;10.952;2023-08-01T05:35:45;66.62;45.88;78.75;;
81666;Laerm;71083;51.796;10.952;2023-08-01T05:38:10;68.68;45.86;80.90;;
81666;Laerm;71083;51.796;10.952;2023-08-01T05:40:36;71.48;54.40;83.90;;
81666;Laerm;71083;51.796;10.952;2023-08-01T05:43:01;66.74;50.20;78.29;;
81666;Laerm;71083;51.796;10.952;2023-08-01T05:45:26;66.49;45.77;76.46;;
81666;Laerm;71083;51.796;10.952;2023-08-01T05:47:52;67.45;44.73;79.12;;
81666;Laerm;71083;51.796;10.952;2023-08-01T05:50:17;66.86;49.90;75.39;;
81666;Laerm;71083;51.796;10.952;2023-08-01T05:52:42;66.28;45.75;76.00;;
81666;Laerm;71083;51.796;10.952;2023-08-01T05:55:08;67.16;46.62;74.52;;
81666;Laerm;71083;51.796;10.952;2023-08-01T05:57:33;68.34;49.24;75.56;;
81666;Laerm;71083;51.796;10.952;2023-08-01T05:59:58;67.08;43.41;80.33;;
81666;Laerm;71083;51.796;10.952;2023-08-01T06:02:24;67.06;43.09;78.08;;
81666;Laerm;71083;51.796;10.952;2023-08-01T06:04:49;67.31;43.08;80.98;;
81666;Laerm;71083;51.796;10.952;2023-08-01T06:07:15;68.51;45.91;82.08;;
81666;Laerm;71083;51.796;10.952;2023-08-01T06:09:40;66.87;49.66;78.08;;
81666;Laerm;71083;51.796;10.952;2023-08-01T06:12:05;68.19;42.46;81.90;;
81666;Laerm;71083;51.796;10.952;2023-08-01T06:14:31;66.00;43.25;76.86;;
81666;Laerm;71083;51.796;10.952;2023-08-01T06:16:56;65.54;50.09;73.76;;
81666;Laerm;71083;51.796;10.952;2023-08-01T06:19:21;67.38;46.21;79.48;;
81666;Laerm;71083;51.796;10.952;2023-08-01T06:21:47;67.68;45.28;84.64;;
81666;Laerm;71083;51.796;10.952;2023-08-01T06:24:12;66.09;47.98;74.74;;
81666;Laerm;71083;51.796;10.952;2023-08-01T06:26:38;67.89;48.93;79.57;;
81666;Laerm;71083;51.796;10.952;2023-08-01T06:29:03;66.48;45.78;75.31;;
81666;Laerm;71083;51.796;10.952;2023-08-01T06:31:29;65.13;43.08;76.85;;
81666;Laerm;71083;51.796;10.952;2023-08-01T06:33:54;65.63;39.77;74.77;;
81666;Laerm;71083;51.796;10.952;2023-08-01T06:36:20;67.32;46.35;79.54;;
81666;Laerm;71083;51.796;10.952;2023-08-01T06:38:45;69.47;48.04;86.59;;
81666;Laerm;71083;51.796;10.952;2023-08-01T06:41:11;67.87;49.50;79.69;;
81666;Laerm;71083;51.796;10.952;2023-08-01T06:43:36;65.07;43.18;76.60;;
81666;Laerm;71083;51.796;10.952;2023-08-01T06:46:03;68.97;46.57;80.71;;
81666;Laerm;71083;51.796;10.952;2023-08-01T06:48:28;67.49;45.97;78.82;;
81666;Laerm;71083;51.796;10.952;2023-08-01T06:50:54;66.83;44.69;74.25;;
81666;Laerm;71083;51.796;10.952;2023-08-01T06:53:19;67.71;51.99;75.47;;
81666;Laerm;71083;51.796;10.952;2023-08-01T06:55:45;68.37;50.14;80.25;;
81666;Laerm;71083;51.796;10.952;2023-08-01T06:58:10;67.89;50.12;76.54;;
81666;Laerm;71083;51.796;10.952;2023-08-01T07:00:35;68.23;53.51;74.54;;
81666;Laerm;71083;51.796;10.952;2023-08-01T07:03:01;66.94;49.50;75.43;;
81666;Laerm;71083;51.796;10.952;2023-08-01T07:05:27;65.74;49.30;73.72;;
81666;Laerm;71083;51.796;10.952;2023-08-01T07:07:52;66.18;44.49;76.39;;
81666;Laerm;71083;51.796;10.952;2023-08-01T07:10:17;66.42;49.50;75.00;;
81666;Laerm;71083;51.796;10.952;2023-08-01T07:12:43;70.12;53.15;80.27;;
81666;Laerm;71083;51.796;10.952;2023-08-01T07:15:08;70.31;51.89;83.53;;
81666;Laerm;71083;51.796;10.952;2023-08-01T07:17:34;77.97;54.84;97.56;;
81666;Laerm;71083;51.796;10.952;2023-08-01T07:19:59;67.86;50.36;75.74;;
81666;Laerm;71083;51.796;10.952;2023-08-01T07:22:24;69.30;49.33;76.91;;
81666;Laerm;71083;51.796;10.952;2023-08-01T07:24:53;72.65;57.24;83.09;;
81666;Laerm;71083;51.796;10.952;2023-08-01T07:27:19;73.66;56.14;85.04;;
81666;Laerm;71083;51.796;10.952;2023-08-01T07:29:44;72.48;56.19;80.63;;
81666;Laerm;71083;51.796;10.952;2023-08-01T07:32:10;72.17;53.24;81.94;;
81666;Laerm;71083;51.796;10.952;2023-08-01T07:34:36;74.47;59.67;84.54;;
81666;Laerm;71083;51.796;10.952;2023-08-01T07:37:01;73.50;57.03;81.73;;
81666;Laerm;71083;51.796;10.952;2023-08-01T07:39:26;76.43;63.07;83.87;;
81666;Laerm;71083;51.796;10.952;2023-08-01T07:41:52;71.77;57.32;80.05;;
81666;Laerm;71083;51.796;10.952;2023-08-01T07:44:17;74.20;64.24;82.45;;
81666;Laerm;71083;51.796;10.952;2023-08-01T07:46:42;76.04;59.71;83.70;;
81666;Laerm;71083;51.796;10.952;2023-08-01T07:49:08;75.74;59.24;85.53;;
81666;Laerm;71083;51.796;10.952;2023-08-01T07:51:33;74.83;55.36;87.34;;
81666;Laerm;71083;51.796;10.952;2023-08-01T07:53:59;74.48;52.20;83.16;;
81666;Laerm;71083;51.796;10.952;2023-08-01T07:56:24;73.31;54.91;85.35;;
81666;Laerm;71083;51.796;10.952;2023-08-01T07:58:50;74.41;50.13;84.94;;
81666;Laerm;71083;51.796;10.952;2023-08-01T08:01:15;73.01;46.51;83.97;;
81666;Laerm;71083;51.796;10.952;2023-08-01T08:03:40;73.53;46.60;80.76;;
81666;Laerm;71083;51.796;10.952;2023-08-01T08:06:06;71.01;47.96;78.81;;
81666;Laerm;71083;51.796;10.952;2023-08-01T08:08:31;72.95;56.74;82.34;;
81666;Laerm;71083;51.796;10.952;2023-08-01T08:10:58;73.08;51.15;80.43;;
81666;Laerm;71083;51.796;10.952;2023-08-01T08:13:24;69.09;47.66;77.48;;
81666;Laerm;71083;51.796;10.952;2023-08-01T08:15:50;69.56;53.69;77.97;;
81666;Laerm;71083;51.796;10.952;2023-08-01T08:18:16;71.88;49.79;81.91;;
81666;Laerm;71083;51.796;10.952;2023-08-01T08:20:42;71.19;55.40;84.57;;
81666;Laerm;71083;51.796;10.952;2023-08-01T08:23:08;71.98;50.66;82.55;;
81666;Laerm;71083;51.796;10.952;2023-08-01T08:25:33;70.93;55.41;78.07;;
81666;Laerm;71083;51.796;10.952;2023-08-01T08:27:59;71.38;53.03;82.08;;
81666;Laerm;71083;51.796;10.952;2023-08-01T08:30:24;71.10;44.02;80.18;;
81666;Laerm;71083;51.796;10.952;2023-08-01T08:32:50;69.64;44.31;77.01;;
81666;Laerm;71083;51.796;10.952;2023-08-01T08:35:15;72.23;52.86;84.54;;
81666;Laerm;71083;51.796;10.952;2023-08-01T08:37:40;71.18;56.88;84.87;;
81666;Laerm;71083;51.796;10.952;2023-08-01T08:40:06;69.04;42.47;78.14;;
81666;Laerm;71083;51.796;10.952;2023-08-01T08:42:32;68.77;48.41;77.18;;
81666;Laerm;71083;51.796;10.952;2023-08-01T08:44:58;71.83;56.41;83.38;;
81666;Laerm;71083;51.796;10.952;2023-08-01T08:47:26;71.16;54.49;78.65;;
81666;Laerm;71083;51.796;10.952;2023-08-01T08:49:54;71.86;54.87;86.98;;
81666;Laerm;71083;51.796;10.952;2023-08-01T08:52:20;68.41;57.53;79.38;;
81666;Laerm;71083;51.796;10.952;2023-08-01T08:54:46;72.05;55.70;83.06;;
81666;Laerm;71083;51.796;10.952;2023-08-01T08:57:12;70.48;45.51;80.51;;
81666;Laerm;71083;51.796;10.952;2023-08-01T08:59:38;67.35;46.95;77.47;;
81666;Laerm;71083;51.796;10.952;2023-08-01T09:02:04;70.03;52.99;76.69;;
81666;Laerm;71083;51.796;10.952;2023-08-01T09:04:30;70.08;54.65;79.67;;
81666;Laerm;71083;51.796;10.952;2023-08-01T09:06:56;70.72;53.55;80.39;;
81666;Laerm;71083;51.796;10.952;2023-08-01T09:09:23;69.23;46.49;76.84;;
81666;Laerm;71083;51.796;10.952;2023-08-01T09:11:51;70.46;49.13;80.25;;
81666;Laerm;71083;51.796;10.952;2023-08-01T09:14:17;70.09;49.90;76.43;;
81666;Laerm;71083;51.796;10.952;2023-08-01T09:16:43;70.05;47.02;78.71;;
81666;Laerm;71083;51.796;10.952;2023-08-01T09:19:09;70.58;52.63;78.65;;
81666;Laerm;71083;51.796;10.952;2023-08-01T09:21:35;69.71;54.24;81.03;;
81666;Laerm;71083;51.796;10.952;2023-08-01T09:24:10;70.62;52.81;81.81;;
81666;Laerm;71083;51.796;10.952;2023-08-01T09:26:36;69.73;54.94;80.59;;
81666;Laerm;71083;51.796;10.952;2023-08-01T09:29:01;70.71;54.90;80.62;;
81666;Laerm;71083;51.796;10.952;2023-08-01T09:31:30;68.30;51.74;75.86;;
81666;Laerm;71083;51.796;10.952;2023-08-01T09:33:56;70.26;47.28;81.68;;
81666;Laerm;71083;51.796;10.952;2023-08-01T09:36:21;70.56;53.07;79.03;;
81666;Laerm;71083;51.796;10.952;2023-08-01T09:38:47;68.78;47.15;75.99;;
81666;Laerm;71083;51.796;10.952;2023-08-01T09:41:16;69.99;49.21;76.86;;
81666;Laerm;71083;51.796;10.952;2023-08-01T09:43:42;69.05;44.41;79.42;;
81666;Laerm;71083;51.796;10.952;2023-08-01T09:46:07;68.75;47.63;77.65;;
81666;Laerm;71083;51.796;10.952;2023-08-01T09:48:33;72.00;46.17;82.99;;
81666;Laerm;71083;51.796;10.952;2023-08-01T09:51:12;70.19;57.46;80.85;;
81666;Laerm;71083;51.796;10.952;2023-08-01T09:53:56;68.81;53.56;78.16;;
81666;Laerm;71083;51.796;10.952;2023-08-01T09:56:22;69.00;46.64;78.99;;
81666;Laerm;71083;51.796;10.952;2023-08-01T09:58:48;69.63;52.33;77.05;;
81666;Laerm;71083;51.796;10.952;2023-08-01T10:01:14;68.68;50.24;77.45;;
81666;Laerm;71083;51.796;10.952;2023-08-01T10:03:42;70.56;44.18;82.29;;
81666;Laerm;71083;51.796;10.952;2023-08-01T10:06:09;69.21;52.16;78.61;;
81666;Laerm;71083;51.796;10.952;2023-08-01T10:08:36;68.98;47.13;77.20;;
81666;Laerm;71083;51.796;10.952;2023-08-01T10:11:04;68.07;49.92;75.89;;
81666;Laerm;71083;51.796;10.952;2023-08-01T10:13:29;69.94;45.99;80.16;;
81666;Laerm;71083;51.796;10.952;2023-08-01T10:15:55;68.90;46.62;78.62;;
81666;Laerm;71083;51.796;10.952;2023-08-01T10:18:21;69.56;54.98;76.53;;
81666;Laerm;71083;51.796;10.952;2023-08-01T10:20:47;69.57;46.97;84.52;;
81666;Laerm;71083;51.796;10.952;2023-08-01T10:23:13;68.75;48.31;78.17;;
81666;Laerm;71083;51.796;10.952;2023-08-01T10:25:39;71.29;47.62;81.10;;
81666;Laerm;71083;51.796;10.952;2023-08-01T10:28:05;69.76;45.78;80.60;;
81666;Laerm;71083;51.796;10.952;2023-08-01T10:30:31;69.87;49.28;79.60;;
81666;Laerm;71083;51.796;10.952;2023-08-01T10:32:57;67.08;46.86;74.42;;
81666;Laerm;71083;51.796;10.952;2023-08-01T10:35:35;68.79;47.58;79.87;;
81666;Laerm;71083;51.796;10.952;2023-08-01T10:38:07;69.50;43.93;80.11;;
81666;Laerm;71083;51.796;10.952;2023-08-01T10:40:33;68.17;51.09;76.86;;
81666;Laerm;71083;51.796;10.952;2023-08-01T10:42:58;69.11;49.97;79.69;;
81666;Laerm;71083;51.796;10.952;2023-08-01T10:45:24;68.58;50.96;82.90;;
81666;Laerm;71083;51.796;10.952;2023-08-01T10:47:52;67.77;45.80;75.67;;
81666;Laerm;71083;51.796;10.952;2023-08-01T10:50:17;67.72;44.88;74.40;;
81666;Laerm;71083;51.796;10.952;2023-08-01T10:52:43;69.93;49.09;75.72;;
81666;Laerm;71083;51.796;10.952;2023-08-01T10:55:09;67.25;44.47;74.20;;
81666;Laerm;71083;51.796;10.952;2023-08-01T10:57:36;69.31;47.54;79.57;;
81666;Laerm;71083;51.796;10.952;2023-08-01T11:00:02;67.98;51.12;78.58;;
81666;Laerm;71083;51.796;10.952;2023-08-01T11:02:30;68.80;46.21;78.03;;
81666;Laerm;71083;51.796;10.952;2023-08-01T11:05:02;68.43;54.77;80.68;;
81666;Laerm;71083;51.796;10.952;2023-08-01T11:07:28;68.63;47.49;84.20;;
81666;Laerm;71083;51.796;10.952;2023-08-01T11:12:27;68.25;50.45;79.79;;
81666;Laerm;71083;51.796;10.952;2023-08-01T11:14:52;68.76;48.76;77.89;;
81666;Laerm;71083;51.796;10.952;2023-08-01T11:17:23;68.90;45.67;80.48;;
81666;Laerm;71083;51.796;10.952;2023-08-01T11:19:50;68.52;52.05;77.53;;
81666;Laerm;71083;51.796;10.952;2023-08-01T11:22:15;67.36;49.98;74.96;;
81666;Laerm;71083;51.796;10.952;2023-08-01T11:24:40;67.21;48.74;74.82;;
81666;Laerm;71083;51.796;10.952;2023-08-01T11:27:14;67.13;45.84;81.65;;
81666;Laerm;71083;51.796;10.952;2023-08-01T11:29:40;65.92;43.98;76.47;;
81666;Laerm;71083;51.796;10.952;2023-08-01T11:32:06;68.35;45.76;75.03;;
81666;Laerm;71083;51.796;10.952;2023-08-01T11:34:38;68.11;49.03;75.25;;
81666;Laerm;71083;51.796;10.952;2023-08-01T11:37:04;67.33;50.34;75.69;;
81666;Laerm;71083;51.796;10.952;2023-08-01T11:39:30;69.26;52.06;77.98;;
81666;Laerm;71083;51.796;10.952;2023-08-01T11:41:55;67.97;52.10;78.09;;
81666;Laerm;71083;51.796;10.952;2023-08-01T11:44:24;67.65;49.12;76.73;;
81666;Laerm;71083;51.796;10.952;2023-08-01T11:46:49;67.99;49.61;77.20;;
81666;Laerm;71083;51.796;10.952;2023-08-01T11:49:15;67.84;53.74;76.29;;
81666;Laerm;71083;51.796;10.952;2023-08-01T11:51:41;68.33;56.77;74.54;;
81666;Laerm;71083;51.796;10.952;2023-08-01T11:54:07;69.33;47.26;81.35;;
81666;Laerm;71083;51.796;10.952;2023-08-01T11:56:32;68.03;40.27;76.29;;
81666;Laerm;71083;51.796;10.952;2023-08-01T11:58:58;68.88;45.61;75.07;;
81666;Laerm;71083;51.796;10.952;2023-08-01T12:01:23;70.31;54.58;83.01;;
81666;Laerm;71083;51.796;10.952;2023-08-01T12:03:50;68.80;47.84;78.92;;
81666;Laerm;71083;51.796;10.952;2023-08-01T12:06:16;68.23;46.67;76.46;;
81666;Laerm;71083;51.796;10.952;2023-08-01T12:08:42;67.90;49.59;82.47;;
81666;Laerm;71083;51.796;10.952;2023-08-01T12:11:17;67.70;45.89;81.67;;
81666;Laerm;71083;51.796;10.952;2023-08-01T12:13:44;68.16;53.38;77.29;;
81666;Laerm;71083;51.796;10.952;2023-08-01T12:16:09;68.12;50.96;75.25;;
81666;Laerm;71083;51.796;10.952;2023-08-01T12:18:34;69.24;53.85;74.60;;
81666;Laerm;71083;51.796;10.952;2023-08-01T12:21:02;68.94;53.58;77.86;;
81666;Laerm;71083;51.796;10.952;2023-08-01T12:23:30;70.06;47.22;82.64;;
81666;Laerm;71083;51.796;10.952;2023-08-01T12:25:55;69.36;53.20;77.58;;
81666;Laerm;71083;51.796;10.952;2023-08-01T12:28:21;68.35;53.68;79.51;;
81666;Laerm;71083;51.796;10.952;2023-08-01T12:30:46;68.29;50.58;78.53;;
81666;Laerm;71083;51.796;10.952;2023-08-01T12:33:11;67.67;48.45;74.60;;
81666;Laerm;71083;51.796;10.952;2023-08-01T12:35:40;67.52;48.07;78.95;;
81666;Laerm;71083;51.796;10.952;2023-08-01T12:38:06;67.62;51.45;77.27;;
81666;Laerm;71083;51.796;10.952;2023-08-01T12:40:31;68.71;47.71;75.80;;
81666;Laerm;71083;51.796;10.952;2023-08-01T12:42:57;68.15;54.01;79.69;;
81666;Laerm;71083;51.796;10.952;2023-08-01T12:45:22;67.79;49.35;79.47;;
81666;Laerm;71083;51.796;10.952;2023-08-01T12:47:48;68.19;50.73;77.30;;
81666;Laerm;71083;51.796;10.952;2023-08-01T12:50:14;68.48;53.09;79.74;;
81666;Laerm;71083;51.796;10.952;2023-08-01T12:52:39;67.45;49.58;74.51;;
81666;Laerm;71083;51.796;10.952;2023-08-01T12:55:04;67.87;49.45;77.77;;
81666;Laerm;71083;51.796;10.952;2023-08-01T12:57:30;69.49;51.63;85.58;;
81666;Laerm;71083;51.796;10.952;2023-08-01T12:59:55;68.01;49.22;81.48;;
81666;Laerm;71083;51.796;10.952;2023-08-01T13:02:20;69.59;52.02;77.10;;
81666;Laerm;71083;51.796;10.952;2023-08-01T13:04:46;67.79;54.49;75.03;;
81666;Laerm;71083;51.796;10.952;2023-08-01T13:07:11;67.52;49.48;74.70;;
81666;Laerm;71083;51.796;10.952;2023-08-01T13:09:36;73.41;44.09;91.94;;
81666;Laerm;71083;51.796;10.952;2023-08-01T13:12:02;69.00;52.98;77.89;;
81666;Laerm;71083;51.796;10.952;2023-08-01T13:14:28;68.03;53.25;79.36;;
81666;Laerm;71083;51.796;10.952;2023-08-01T13:16:53;83.35;51.75;101.23;;
81666;Laerm;71083;51.796;10.952;2023-08-01T13:19:18;67.14;52.32;75.29;;
81666;Laerm;71083;51.796;10.952;2023-08-01T13:21:44;68.67;53.80;76.16;;
81666;Laerm;71083;51.796;10.952;2023-08-01T13:24:09;67.95;46.44;80.31;;
81666;Laerm;71083;51.796;10.952;2023-08-01T13:26:34;67.82;54.27;74.54;;